sensor_id;sensor_type;location;lat;lon;timestamp;P1;durP1;ratioP1;P2;durP2;ratioP2
7215;SDS011;3649;48.798;9.798;2023-04-27T00:01:36;11.20;;;6.63;;
7215;SDS011;3649;48.798;9.798;2023-04-27T00:04:03;8.27;;;5.97;;
7215;SDS011;3649;48.798;9.798;2023-04-27T00:06:32;8.40;;;6.70;;
7215;SDS011;3649;48.798;9.798;2023-04-27T00:08:59;7.53;;;6.27;;
7215;SDS011;3649;48.798;9.798;2023-04-27T00:11:26;6.97;;;5.47;;
7215;SDS011;3649;48.798;9.798;2023-04-27T00:13:53;8.07;;;5.17;;
7215;SDS011;3649;48.798;9.798;2023-04-27T00:16:21;11.87;;;6.13;;
7215;SDS011;3649;48.798;9.798;2023-04-27T00:18:48;5.90;;;4.73;;
7215;SDS011;3649;48.798;9.798;2023-04-27T00:21:15;5.87;;;4.60;;
7215;SDS011;3649;48.798;9.798;2023-04-27T00:23:41;6.83;;;5.20;;
7215;SDS011;3649;48.798;9.798;2023-04-27T00:26:08;5.20;;;4.70;;
7215;SDS011;3649;48.798;9.798;2023-04-27T00:28:35;6.37;;;4.87;;
7215;SDS011;3649;48.798;9.798;2023-04-27T00:31:02;7.17;;;4.83;;
7215;SDS011;3649;48.798;9.798;2023-04-27T00:33:29;8.53;;;5.33;;
7215;SDS011;3649;48.798;9.798;2023-04-27T00:35:59;7.40;;;5.60;;
7215;SDS011;3649;48.798;9.798;2023-04-27T00:38:27;8.33;;;4.67;;
7215;SDS011;3649;48.798;9.798;2023-04-27T00:41:01;9.30;;;5.53;;
7215;SDS011;3649;48.798;9.798;2023-04-27T00:43:32;7.03;;;5.13;;
7215;SDS011;3649;48.798;9.798;2023-04-27T00:46:06;5.80;;;4.93;;
7215;SDS011;3649;48.798;9.798;2023-04-27T00:48:34;7.07;;;6.03;;
7215;SDS011;3649;48.798;9.798;2023-04-27T00:51:01;8.13;;;5.03;;
7215;SDS011;3649;48.798;9.798;2023-04-27T00:53:27;5.73;;;5.23;;
7215;SDS011;3649;48.798;9.798;2023-04-27T00:55:55;8.13;;;5.10;;
7215;SDS011;3649;48.798;9.798;2023-04-27T00:58:23;5.73;;;4.77;;
7215;SDS011;3649;48.798;9.798;2023-04-27T01:00:51;7.17;;;5.27;;
7215;SDS011;3649;48.798;9.798;2023-04-27T01:03:18;9.60;;;5.13;;
7215;SDS011;3649;48.798;9.798;2023-04-27T01:05:45;7.03;;;5.13;;
7215;SDS011;3649;48.798;9.798;2023-04-27T01:08:12;7.27;;;5.43;;
7215;SDS011;3649;48.798;9.798;2023-04-27T01:10:39;6.97;;;5.10;;
7215;SDS011;3649;48.798;9.798;2023-04-27T01:13:06;9.23;;;5.43;;
7215;SDS011;3649;48.798;9.798;2023-04-27T01:15:33;8.63;;;6.50;;
7215;SDS011;3649;48.798;9.798;2023-04-27T01:18:00;7.83;;;5.27;;
7215;SDS011;3649;48.798;9.798;2023-04-27T01:20:28;10.07;;;5.27;;
7215;SDS011;3649;48.798;9.798;2023-04-27T01:22:55;6.73;;;5.60;;
7215;SDS011;3649;48.798;9.798;2023-04-27T01:25:24;11.07;;;5.93;;
7215;SDS011;3649;48.798;9.798;2023-04-27T01:27:51;6.20;;;5.63;;
7215;SDS011;3649;48.798;9.798;2023-04-27T01:30:19;9.33;;;6.20;;
7215;SDS011;3649;48.798;9.798;2023-04-27T01:32:47;8.73;;;5.63;;
7215;SDS011;3649;48.798;9.798;2023-04-27T01:35:15;9.13;;;5.30;;
7215;SDS011;3649;48.798;9.798;2023-04-27T01:37:42;7.70;;;5.40;;
7215;SDS011;3649;48.798;9.798;2023-04-27T01:40:09;8.93;;;5.07;;
7215;SDS011;3649;48.798;9.798;2023-04-27T01:42:36;7.27;;;5.60;;
7215;SDS011;3649;48.798;9.798;2023-04-27T01:45:03;7.50;;;5.53;;
7215;SDS011;3649;48.798;9.798;2023-04-27T01:47:31;6.37;;;5.10;;
7215;SDS011;3649;48.798;9.798;2023-04-27T01:49:58;6.93;;;5.40;;
7215;SDS011;3649;48.798;9.798;2023-04-27T01:52:25;5.90;;;4.93;;
7215;SDS011;3649;48.798;9.798;2023-04-27T01:54:52;6.87;;;5.23;;
7215;SDS011;3649;48.798;9.798;2023-04-27T01:57:19;7.10;;;4.80;;
7215;SDS011;3649;48.798;9.798;2023-04-27T01:59:46;8.13;;;4.97;;
7215;SDS011;3649;48.798;9.798;2023-04-27T02:02:13;6.90;;;5.37;;
7215;SDS011;3649;48.798;9.798;2023-04-27T02:04:40;6.57;;;4.83;;
7215;SDS011;3649;48.798;9.798;2023-04-27T02:07:08;5.70;;;4.53;;
7215;SDS011;3649;48.798;9.798;2023-04-27T02:09:36;8.20;;;5.60;;
7215;SDS011;3649;48.798;9.798;2023-04-27T02:12:03;5.70;;;5.17;;
7215;SDS011;3649;48.798;9.798;2023-04-27T02:14:30;7.13;;;5.00;;
7215;SDS011;3649;48.798;9.798;2023-04-27T02:16:57;6.23;;;5.17;;
7215;SDS011;3649;48.798;9.798;2023-04-27T02:19:24;8.10;;;5.10;;
7215;SDS011;3649;48.798;9.798;2023-04-27T02:21:51;8.40;;;4.67;;
7215;SDS011;3649;48.798;9.798;2023-04-27T02:24:18;7.77;;;4.27;;
7215;SDS011;3649;48.798;9.798;2023-04-27T02:26:45;5.70;;;5.20;;
7215;SDS011;3649;48.798;9.798;2023-04-27T02:29:11;6.23;;;5.20;;
7215;SDS011;3649;48.798;9.798;2023-04-27T02:31:39;8.50;;;5.00;;
7215;SDS011;3649;48.798;9.798;2023-04-27T02:34:06;8.60;;;5.33;;
7215;SDS011;3649;48.798;9.798;2023-04-27T02:36:33;6.70;;;4.73;;
7215;SDS011;3649;48.798;9.798;2023-04-27T02:39:00;11.93;;;4.80;;
7215;SDS011;3649;48.798;9.798;2023-04-27T02:41:30;10.63;;;5.40;;
7215;SDS011;3649;48.798;9.798;2023-04-27T02:43:57;5.33;;;4.83;;
7215;SDS011;3649;48.798;9.798;2023-04-27T02:46:24;5.90;;;5.30;;
7215;SDS011;3649;48.798;9.798;2023-04-27T02:48:52;7.17;;;5.43;;
7215;SDS011;3649;48.798;9.798;2023-04-27T02:51:20;6.87;;;4.77;;
7215;SDS011;3649;48.798;9.798;2023-04-27T02:53:47;5.43;;;4.93;;
7215;SDS011;3649;48.798;9.798;2023-04-27T02:56:14;9.37;;;5.03;;
7215;SDS011;3649;48.798;9.798;2023-04-27T02:58:41;7.93;;;5.23;;
7215;SDS011;3649;48.798;9.798;2023-04-27T03:01:08;7.83;;;5.57;;
7215;SDS011;3649;48.798;9.798;2023-04-27T03:03:35;10.30;;;5.20;;
7215;SDS011;3649;48.798;9.798;2023-04-27T03:06:02;5.23;;;4.73;;
7215;SDS011;3649;48.798;9.798;2023-04-27T03:08:29;6.10;;;5.10;;
7215;SDS011;3649;48.798;9.798;2023-04-27T03:10:56;7.43;;;4.70;;
7215;SDS011;3649;48.798;9.798;2023-04-27T03:13:22;7.37;;;5.20;;
7215;SDS011;3649;48.798;9.798;2023-04-27T03:15:49;7.83;;;5.20;;
7215;SDS011;3649;48.798;9.798;2023-04-27T03:18:16;11.50;;;5.13;;
7215;SDS011;3649;48.798;9.798;2023-04-27T03:20:43;9.30;;;5.20;;
7215;SDS011;3649;48.798;9.798;2023-04-27T03:23:09;6.47;;;4.90;;
7215;SDS011;3649;48.798;9.798;2023-04-27T03:25:37;6.47;;;4.73;;
7215;SDS011;3649;48.798;9.798;2023-04-27T03:28:04;8.73;;;4.63;;
7215;SDS011;3649;48.798;9.798;2023-04-27T03:30:30;5.87;;;4.53;;
7215;SDS011;3649;48.798;9.798;2023-04-27T03:32:57;6.90;;;5.07;;
7215;SDS011;3649;48.798;9.798;2023-04-27T03:35:24;6.37;;;4.53;;
7215;SDS011;3649;48.798;9.798;2023-04-27T03:37:51;10.00;;;4.63;;
7215;SDS011;3649;48.798;9.798;2023-04-27T03:40:18;6.13;;;4.80;;
7215;SDS011;3649;48.798;9.798;2023-04-27T03:42:45;7.53;;;5.00;;
7215;SDS011;3649;48.798;9.798;2023-04-27T03:45:11;9.10;;;5.13;;
7215;SDS011;3649;48.798;9.798;2023-04-27T03:47:38;6.10;;;4.90;;
7215;SDS011;3649;48.798;9.798;2023-04-27T03:50:05;7.00;;;4.83;;
7215;SDS011;3649;48.798;9.798;2023-04-27T03:52:32;5.23;;;4.73;;
7215;SDS011;3649;48.798;9.798;2023-04-27T03:54:59;8.90;;;5.17;;
7215;SDS011;3649;48.798;9.798;2023-04-27T03:57:26;7.10;;;5.37;;
7215;SDS011;3649;48.798;9.798;2023-04-27T03:59:53;9.10;;;4.77;;
7215;SDS011;3649;48.798;9.798;2023-04-27T04:02:19;6.63;;;5.27;;
7215;SDS011;3649;48.798;9.798;2023-04-27T04:04:47;7.30;;;5.50;;
7215;SDS011;3649;48.798;9.798;2023-04-27T04:07:14;7.17;;;4.93;;
7215;SDS011;3649;48.798;9.798;2023-04-27T04:09:42;9.80;;;4.80;;
7215;SDS011;3649;48.798;9.798;2023-04-27T04:12:09;5.73;;;5.20;;
7215;SDS011;3649;48.798;9.798;2023-04-27T04:14:36;5.27;;;4.70;;
7215;SDS011;3649;48.798;9.798;2023-04-27T04:17:03;8.93;;;5.13;;
7215;SDS011;3649;48.798;9.798;2023-04-27T04:19:30;6.50;;;4.73;;
7215;SDS011;3649;48.798;9.798;2023-04-27T04:21:57;7.17;;;5.20;;
7215;SDS011;3649;48.798;9.798;2023-04-27T04:24:23;6.83;;;4.50;;
7215;SDS011;3649;48.798;9.798;2023-04-27T04:26:50;6.77;;;4.63;;
7215;SDS011;3649;48.798;9.798;2023-04-27T04:29:17;5.30;;;4.77;;
7215;SDS011;3649;48.798;9.798;2023-04-27T04:31:44;8.17;;;4.80;;
7215;SDS011;3649;48.798;9.798;2023-04-27T04:34:11;8.30;;;5.80;;
7215;SDS011;3649;48.798;9.798;2023-04-27T04:36:39;5.73;;;5.17;;
7215;SDS011;3649;48.798;9.798;2023-04-27T04:39:06;8.80;;;4.63;;
7215;SDS011;3649;48.798;9.798;2023-04-27T04:41:33;7.13;;;5.20;;
7215;SDS011;3649;48.798;9.798;2023-04-27T04:44:00;8.47;;;5.37;;
7215;SDS011;3649;48.798;9.798;2023-04-27T04:46:27;5.30;;;4.77;;
7215;SDS011;3649;48.798;9.798;2023-04-27T04:48:54;5.80;;;5.20;;
7215;SDS011;3649;48.798;9.798;2023-04-27T04:51:20;6.80;;;5.07;;
7215;SDS011;3649;48.798;9.798;2023-04-27T04:53:47;6.73;;;4.73;;
7215;SDS011;3649;48.798;9.798;2023-04-27T04:56:15;6.17;;;5.33;;
7215;SDS011;3649;48.798;9.798;2023-04-27T04:58:42;8.10;;;4.90;;
7215;SDS011;3649;48.798;9.798;2023-04-27T05:01:08;5.90;;;5.30;;
7215;SDS011;3649;48.798;9.798;2023-04-27T05:03:35;7.00;;;5.73;;
7215;SDS011;3649;48.798;9.798;2023-04-27T05:06:03;7.30;;;5.17;;
7215;SDS011;3649;48.798;9.798;2023-04-27T05:08:30;8.60;;;5.33;;
7215;SDS011;3649;48.798;9.798;2023-04-27T05:10:57;6.00;;;5.23;;
7215;SDS011;3649;48.798;9.798;2023-04-27T05:13:24;8.63;;;5.43;;
7215;SDS011;3649;48.798;9.798;2023-04-27T05:15:51;9.60;;;5.10;;
7215;SDS011;3649;48.798;9.798;2023-04-27T05:18:18;7.13;;;5.00;;
7215;SDS011;3649;48.798;9.798;2023-04-27T05:20:45;8.77;;;5.80;;
7215;SDS011;3649;48.798;9.798;2023-04-27T05:23:12;9.07;;;5.43;;
7215;SDS011;3649;48.798;9.798;2023-04-27T05:25:38;7.63;;;5.63;;
7215;SDS011;3649;48.798;9.798;2023-04-27T05:28:08;6.27;;;4.87;;
7215;SDS011;3649;48.798;9.798;2023-04-27T05:30:35;8.83;;;5.10;;
7215;SDS011;3649;48.798;9.798;2023-04-27T05:33:02;6.13;;;5.53;;
7215;SDS011;3649;48.798;9.798;2023-04-27T05:35:30;15.00;;;6.47;;
7215;SDS011;3649;48.798;9.798;2023-04-27T05:37:58;6.10;;;5.37;;
7215;SDS011;3649;48.798;9.798;2023-04-27T05:40:25;6.87;;;5.37;;
7215;SDS011;3649;48.798;9.798;2023-04-27T05:42:52;7.67;;;5.47;;
7215;SDS011;3649;48.798;9.798;2023-04-27T05:45:19;7.03;;;6.07;;
7215;SDS011;3649;48.798;9.798;2023-04-27T05:47:46;9.50;;;5.37;;
7215;SDS011;3649;48.798;9.798;2023-04-27T05:50:13;8.03;;;5.43;;
7215;SDS011;3649;48.798;9.798;2023-04-27T05:52:40;6.43;;;5.23;;
7215;SDS011;3649;48.798;9.798;2023-04-27T05:55:07;11.47;;;5.53;;
7215;SDS011;3649;48.798;9.798;2023-04-27T05:57:34;9.87;;;5.80;;
7215;SDS011;3649;48.798;9.798;2023-04-27T06:00:01;7.70;;;5.17;;
7215;SDS011;3649;48.798;9.798;2023-04-27T06:02:33;7.57;;;5.70;;
7215;SDS011;3649;48.798;9.798;2023-04-27T06:05:00;8.00;;;4.93;;
7215;SDS011;3649;48.798;9.798;2023-04-27T06:07:27;9.17;;;5.60;;
7215;SDS011;3649;48.798;9.798;2023-04-27T06:09:54;5.87;;;4.93;;
7215;SDS011;3649;48.798;9.798;2023-04-27T06:12:21;5.73;;;5.20;;
7215;SDS011;3649;48.798;9.798;2023-04-27T06:14:48;7.43;;;5.60;;
7215;SDS011;3649;48.798;9.798;2023-04-27T06:17:14;5.90;;;5.20;;
7215;SDS011;3649;48.798;9.798;2023-04-27T06:19:41;7.60;;;6.40;;
7215;SDS011;3649;48.798;9.798;2023-04-27T06:22:08;10.40;;;7.53;;
7215;SDS011;3649;48.798;9.798;2023-04-27T06:24:36;22.17;;;10.93;;
7215;SDS011;3649;48.798;9.798;2023-04-27T06:27:03;17.73;;;10.93;;
7215;SDS011;3649;48.798;9.798;2023-04-27T06:29:31;16.83;;;8.50;;
7215;SDS011;3649;48.798;9.798;2023-04-27T06:31:58;13.77;;;6.53;;
7215;SDS011;3649;48.798;9.798;2023-04-27T06:34:26;6.67;;;5.30;;
7215;SDS011;3649;48.798;9.798;2023-04-27T06:36:53;9.80;;;5.17;;
7215;SDS011;3649;48.798;9.798;2023-04-27T06:39:19;11.47;;;5.87;;
7215;SDS011;3649;48.798;9.798;2023-04-27T06:41:46;8.77;;;5.90;;
7215;SDS011;3649;48.798;9.798;2023-04-27T06:44:13;13.93;;;7.40;;
7215;SDS011;3649;48.798;9.798;2023-04-27T06:46:40;8.87;;;5.77;;
7215;SDS011;3649;48.798;9.798;2023-04-27T06:49:07;7.70;;;5.67;;
7215;SDS011;3649;48.798;9.798;2023-04-27T06:51:34;11.30;;;5.50;;
7215;SDS011;3649;48.798;9.798;2023-04-27T06:54:00;10.83;;;6.50;;
7215;SDS011;3649;48.798;9.798;2023-04-27T06:56:28;11.63;;;6.83;;
7215;SDS011;3649;48.798;9.798;2023-04-27T06:58:55;13.90;;;8.50;;
7215;SDS011;3649;48.798;9.798;2023-04-27T07:01:22;26.17;;;12.00;;
7215;SDS011;3649;48.798;9.798;2023-04-27T07:03:49;11.07;;;6.77;;
7215;SDS011;3649;48.798;9.798;2023-04-27T07:06:16;10.20;;;5.70;;
7215;SDS011;3649;48.798;9.798;2023-04-27T07:08:43;9.20;;;6.40;;
7215;SDS011;3649;48.798;9.798;2023-04-27T07:11:10;7.10;;;5.27;;
7215;SDS011;3649;48.798;9.798;2023-04-27T07:13:37;7.23;;;5.60;;
7215;SDS011;3649;48.798;9.798;2023-04-27T07:16:04;11.90;;;5.93;;
7215;SDS011;3649;48.798;9.798;2023-04-27T07:18:31;10.17;;;4.87;;
7215;SDS011;3649;48.798;9.798;2023-04-27T07:20:58;9.30;;;4.97;;
7215;SDS011;3649;48.798;9.798;2023-04-27T07:23:25;10.03;;;5.37;;
7215;SDS011;3649;48.798;9.798;2023-04-27T07:25:52;10.20;;;5.53;;
7215;SDS011;3649;48.798;9.798;2023-04-27T07:28:19;7.10;;;5.73;;
7215;SDS011;3649;48.798;9.798;2023-04-27T07:30:46;6.60;;;5.60;;
7215;SDS011;3649;48.798;9.798;2023-04-27T07:33:13;8.80;;;5.67;;
7215;SDS011;3649;48.798;9.798;2023-04-27T07:35:40;10.70;;;5.13;;
7215;SDS011;3649;48.798;9.798;2023-04-27T07:38:07;7.10;;;4.63;;
7215;SDS011;3649;48.798;9.798;2023-04-27T07:40:34;5.40;;;4.30;;
7215;SDS011;3649;48.798;9.798;2023-04-27T07:43:02;8.13;;;5.03;;
7215;SDS011;3649;48.798;9.798;2023-04-27T07:45:29;6.73;;;4.73;;
7215;SDS011;3649;48.798;9.798;2023-04-27T07:47:59;12.33;;;4.73;;
7215;SDS011;3649;48.798;9.798;2023-04-27T07:50:27;11.23;;;4.80;;
7215;SDS011;3649;48.798;9.798;2023-04-27T07:52:55;8.87;;;5.47;;
7215;SDS011;3649;48.798;9.798;2023-04-27T07:55:23;9.27;;;4.80;;
7215;SDS011;3649;48.798;9.798;2023-04-27T07:57:51;5.07;;;4.27;;
7215;SDS011;3649;48.798;9.798;2023-04-27T08:00:19;7.33;;;4.90;;
7215;SDS011;3649;48.798;9.798;2023-04-27T08:02:46;6.07;;;4.60;;
7215;SDS011;3649;48.798;9.798;2023-04-27T08:05:13;9.67;;;4.33;;
7215;SDS011;3649;48.798;9.798;2023-04-27T08:07:41;6.77;;;4.20;;
7215;SDS011;3649;48.798;9.798;2023-04-27T08:10:10;5.03;;;4.20;;
7215;SDS011;3649;48.798;9.798;2023-04-27T08:12:37;6.73;;;4.03;;
7215;SDS011;3649;48.798;9.798;2023-04-27T08:15:04;5.93;;;4.50;;
7215;SDS011;3649;48.798;9.798;2023-04-27T08:17:32;5.80;;;3.80;;
7215;SDS011;3649;48.798;9.798;2023-04-27T08:20:00;8.90;;;3.87;;
7215;SDS011;3649;48.798;9.798;2023-04-27T08:22:27;12.63;;;4.30;;
7215;SDS011;3649;48.798;9.798;2023-04-27T08:24:54;14.70;;;3.97;;
7215;SDS011;3649;48.798;9.798;2023-04-27T08:27:20;5.70;;;4.50;;
7215;SDS011;3649;48.798;9.798;2023-04-27T08:29:47;6.57;;;4.10;;
7215;SDS011;3649;48.798;9.798;2023-04-27T08:32:15;4.50;;;4.10;;
7215;SDS011;3649;48.798;9.798;2023-04-27T08:34:42;4.03;;;3.70;;
7215;SDS011;3649;48.798;9.798;2023-04-27T08:37:10;5.57;;;4.13;;
7215;SDS011;3649;48.798;9.798;2023-04-27T08:39:37;4.37;;;3.97;;
7215;SDS011;3649;48.798;9.798;2023-04-27T08:42:10;7.33;;;3.67;;
7215;SDS011;3649;48.798;9.798;2023-04-27T08:44:41;5.67;;;3.77;;
7215;SDS011;3649;48.798;9.798;2023-04-27T08:47:09;5.57;;;3.70;;
7215;SDS011;3649;48.798;9.798;2023-04-27T08:49:37;5.53;;;3.63;;
7215;SDS011;3649;48.798;9.798;2023-04-27T08:52:09;6.03;;;3.30;;
7215;SDS011;3649;48.798;9.798;2023-04-27T08:54:37;8.73;;;3.07;;
7215;SDS011;3649;48.798;9.798;2023-04-27T08:57:11;4.87;;;3.40;;
7215;SDS011;3649;48.798;9.798;2023-04-27T08:59:39;4.30;;;3.03;;
7215;SDS011;3649;48.798;9.798;2023-04-27T09:02:16;4.50;;;3.20;;
7215;SDS011;3649;48.798;9.798;2023-04-27T09:04:47;3.50;;;3.20;;
7215;SDS011;3649;48.798;9.798;2023-04-27T09:07:15;4.07;;;3.30;;
7215;SDS011;3649;48.798;9.798;2023-04-27T09:09:43;7.30;;;3.40;;
7215;SDS011;3649;48.798;9.798;2023-04-27T09:12:18;4.90;;;3.40;;
7215;SDS011;3649;48.798;9.798;2023-04-27T09:14:56;8.13;;;3.37;;
7215;SDS011;3649;48.798;9.798;2023-04-27T09:17:25;7.03;;;3.50;;
7215;SDS011;3649;48.798;9.798;2023-04-27T09:20:05;4.10;;;3.50;;
7215;SDS011;3649;48.798;9.798;2023-04-27T09:22:42;4.53;;;3.27;;
7215;SDS011;3649;48.798;9.798;2023-04-27T09:25:25;4.73;;;3.53;;
7215;SDS011;3649;48.798;9.798;2023-04-27T09:27:57;2.97;;;2.73;;
7215;SDS011;3649;48.798;9.798;2023-04-27T09:30:26;6.10;;;3.33;;
7215;SDS011;3649;48.798;9.798;2023-04-27T09:32:55;3.53;;;3.10;;
7215;SDS011;3649;48.798;9.798;2023-04-27T09:35:32;8.03;;;4.00;;
7215;SDS011;3649;48.798;9.798;2023-04-27T09:37:59;3.97;;;3.13;;
7215;SDS011;3649;48.798;9.798;2023-04-27T09:40:27;5.50;;;3.37;;
7215;SDS011;3649;48.798;9.798;2023-04-27T09:42:59;4.00;;;3.53;;
7215;SDS011;3649;48.798;9.798;2023-04-27T09:45:27;5.97;;;3.53;;
7215;SDS011;3649;48.798;9.798;2023-04-27T09:47:58;5.20;;;4.03;;
7215;SDS011;3649;48.798;9.798;2023-04-27T09:50:27;5.57;;;3.70;;
7215;SDS011;3649;48.798;9.798;2023-04-27T09:52:54;5.23;;;3.33;;
7215;SDS011;3649;48.798;9.798;2023-04-27T09:55:29;4.57;;;2.93;;
7215;SDS011;3649;48.798;9.798;2023-04-27T10:09:27;7.00;;;2.80;;
7215;SDS011;3649;48.798;9.798;2023-04-27T10:12:22;3.00;;;2.57;;
7215;SDS011;3649;48.798;9.798;2023-04-27T10:14:54;5.27;;;3.17;;
7215;SDS011;3649;48.798;9.798;2023-04-27T10:17:29;3.37;;;2.60;;
7215;SDS011;3649;48.798;9.798;2023-04-27T10:19:58;5.27;;;2.80;;
7215;SDS011;3649;48.798;9.798;2023-04-27T10:22:47;3.23;;;2.30;;
7215;SDS011;3649;48.798;9.798;2023-04-27T10:25:19;6.80;;;2.60;;
7215;SDS011;3649;48.798;9.798;2023-04-27T10:27:57;4.77;;;2.70;;
7215;SDS011;3649;48.798;9.798;2023-04-27T10:30:30;2.67;;;2.40;;
7215;SDS011;3649;48.798;9.798;2023-04-27T10:33:05;2.80;;;2.37;;
7215;SDS011;3649;48.798;9.798;2023-04-27T10:38:08;7.03;;;2.87;;
7215;SDS011;3649;48.798;9.798;2023-04-27T10:40:43;2.87;;;2.30;;
7215;SDS011;3649;48.798;9.798;2023-04-27T10:43:12;3.97;;;2.60;;
7215;SDS011;3649;48.798;9.798;2023-04-27T10:45:42;2.67;;;2.47;;
7215;SDS011;3649;48.798;9.798;2023-04-27T10:48:12;4.10;;;2.20;;
7215;SDS011;3649;48.798;9.798;2023-04-27T10:50:41;6.93;;;3.07;;
7215;SDS011;3649;48.798;9.798;2023-04-27T10:53:10;11.10;;;2.80;;
7215;SDS011;3649;48.798;9.798;2023-04-27T10:55:37;5.90;;;3.20;;
7215;SDS011;3649;48.798;9.798;2023-04-27T10:58:04;7.17;;;3.00;;
7215;SDS011;3649;48.798;9.798;2023-04-27T11:03:10;4.50;;;2.47;;
7215;SDS011;3649;48.798;9.798;2023-04-27T11:05:43;2.77;;;2.47;;
7215;SDS011;3649;48.798;9.798;2023-04-27T11:08:15;3.67;;;2.67;;
7215;SDS011;3649;48.798;9.798;2023-04-27T11:10:47;2.60;;;2.40;;
7215;SDS011;3649;48.798;9.798;2023-04-27T11:18:16;6.30;;;2.53;;
7215;SDS011;3649;48.798;9.798;2023-04-27T11:20:45;4.73;;;2.27;;
7215;SDS011;3649;48.798;9.798;2023-04-27T11:23:48;2.63;;;2.07;;
7215;SDS011;3649;48.798;9.798;2023-04-27T11:26:09;2.10;;;1.90;;
7215;SDS011;3649;48.798;9.798;2023-04-27T11:28:44;2.77;;;2.17;;
7215;SDS011;3649;48.798;9.798;2023-04-27T11:31:22;5.57;;;2.40;;
7215;SDS011;3649;48.798;9.798;2023-04-27T11:33:49;4.53;;;2.80;;
7215;SDS011;3649;48.798;9.798;2023-04-27T11:36:17;5.47;;;2.67;;
7215;SDS011;3649;48.798;9.798;2023-04-27T11:38:46;3.53;;;2.20;;
7215;SDS011;3649;48.798;9.798;2023-04-27T11:41:13;2.67;;;2.47;;
7215;SDS011;3649;48.798;9.798;2023-04-27T11:43:41;2.83;;;2.47;;
7215;SDS011;3649;48.798;9.798;2023-04-27T11:46:14;5.80;;;2.60;;
7215;SDS011;3649;48.798;9.798;2023-04-27T11:48:45;7.40;;;2.93;;
7215;SDS011;3649;48.798;9.798;2023-04-27T11:51:11;5.67;;;2.80;;
7215;SDS011;3649;48.798;9.798;2023-04-27T11:53:38;4.03;;;2.50;;
7215;SDS011;3649;48.798;9.798;2023-04-27T11:56:06;4.93;;;2.53;;
7215;SDS011;3649;48.798;9.798;2023-04-27T11:58:36;6.30;;;2.73;;
7215;SDS011;3649;48.798;9.798;2023-04-27T12:01:04;4.47;;;2.23;;
7215;SDS011;3649;48.798;9.798;2023-04-27T12:03:31;6.50;;;2.43;;
7215;SDS011;3649;48.798;9.798;2023-04-27T12:05:59;3.93;;;2.77;;
7215;SDS011;3649;48.798;9.798;2023-04-27T12:08:46;5.47;;;2.60;;
7215;SDS011;3649;48.798;9.798;2023-04-27T12:11:13;4.73;;;2.53;;
7215;SDS011;3649;48.798;9.798;2023-04-27T12:13:40;2.77;;;2.50;;
7215;SDS011;3649;48.798;9.798;2023-04-27T12:16:07;8.40;;;3.00;;
7215;SDS011;3649;48.798;9.798;2023-04-27T12:18:34;4.50;;;2.57;;
7215;SDS011;3649;48.798;9.798;2023-04-27T12:21:01;10.37;;;2.73;;
7215;SDS011;3649;48.798;9.798;2023-04-27T12:23:31;2.90;;;2.20;;
7215;SDS011;3649;48.798;9.798;2023-04-27T12:25:58;3.80;;;2.47;;
7215;SDS011;3649;48.798;9.798;2023-04-27T12:28:25;3.20;;;2.10;;
7215;SDS011;3649;48.798;9.798;2023-04-27T12:30:52;3.43;;;2.13;;
7215;SDS011;3649;48.798;9.798;2023-04-27T12:33:19;3.97;;;2.10;;
7215;SDS011;3649;48.798;9.798;2023-04-27T12:35:46;4.57;;;2.20;;
7215;SDS011;3649;48.798;9.798;2023-04-27T12:38:12;3.90;;;2.40;;
7215;SDS011;3649;48.798;9.798;2023-04-27T12:40:39;2.90;;;2.23;;
7215;SDS011;3649;48.798;9.798;2023-04-27T12:43:07;6.13;;;2.83;;
7215;SDS011;3649;48.798;9.798;2023-04-27T12:45:34;2.20;;;2.00;;
7215;SDS011;3649;48.798;9.798;2023-04-27T12:48:01;4.63;;;2.10;;
7215;SDS011;3649;48.798;9.798;2023-04-27T12:50:32;7.93;;;2.30;;
7215;SDS011;3649;48.798;9.798;2023-04-27T12:53:00;6.30;;;3.90;;
7215;SDS011;3649;48.798;9.798;2023-04-27T12:55:27;8.57;;;4.30;;
7215;SDS011;3649;48.798;9.798;2023-04-27T12:58:00;6.13;;;4.13;;
7215;SDS011;3649;48.798;9.798;2023-04-27T13:00:27;3.87;;;2.70;;
7215;SDS011;3649;48.798;9.798;2023-04-27T13:02:55;2.57;;;2.13;;
7215;SDS011;3649;48.798;9.798;2023-04-27T13:05:22;3.27;;;2.57;;
7215;SDS011;3649;48.798;9.798;2023-04-27T13:07:49;4.20;;;2.07;;
7215;SDS011;3649;48.798;9.798;2023-04-27T13:10:17;4.60;;;2.23;;
7215;SDS011;3649;48.798;9.798;2023-04-27T13:12:44;7.10;;;2.10;;
7215;SDS011;3649;48.798;9.798;2023-04-27T13:15:11;3.53;;;2.87;;
7215;SDS011;3649;48.798;9.798;2023-04-27T13:17:38;5.03;;;2.93;;
7215;SDS011;3649;48.798;9.798;2023-04-27T13:20:08;2.97;;;2.00;;
7215;SDS011;3649;48.798;9.798;2023-04-27T13:22:35;2.37;;;2.10;;
7215;SDS011;3649;48.798;9.798;2023-04-27T13:25:02;6.53;;;2.57;;
7215;SDS011;3649;48.798;9.798;2023-04-27T13:27:31;3.43;;;2.10;;
7215;SDS011;3649;48.798;9.798;2023-04-27T13:29:58;5.50;;;2.70;;
7215;SDS011;3649;48.798;9.798;2023-04-27T13:32:25;3.07;;;2.20;;
7215;SDS011;3649;48.798;9.798;2023-04-27T13:34:52;4.63;;;2.13;;
7215;SDS011;3649;48.798;9.798;2023-04-27T13:37:18;2.93;;;2.10;;
7215;SDS011;3649;48.798;9.798;2023-04-27T13:39:46;4.27;;;2.30;;
7215;SDS011;3649;48.798;9.798;2023-04-27T13:42:13;2.57;;;2.00;;
7215;SDS011;3649;48.798;9.798;2023-04-27T13:44:40;2.60;;;1.83;;
7215;SDS011;3649;48.798;9.798;2023-04-27T13:47:07;4.23;;;2.13;;
7215;SDS011;3649;48.798;9.798;2023-04-27T13:49:35;3.30;;;2.00;;
7215;SDS011;3649;48.798;9.798;2023-04-27T13:52:01;4.03;;;2.03;;
7215;SDS011;3649;48.798;9.798;2023-04-27T13:54:28;2.50;;;2.20;;
7215;SDS011;3649;48.798;9.798;2023-04-27T13:56:55;3.90;;;2.40;;
7215;SDS011;3649;48.798;9.798;2023-04-27T13:59:22;2.57;;;2.10;;
7215;SDS011;3649;48.798;9.798;2023-04-27T14:01:50;5.53;;;2.60;;
7215;SDS011;3649;48.798;9.798;2023-04-27T14:04:17;2.17;;;2.07;;
7215;SDS011;3649;48.798;9.798;2023-04-27T14:06:44;4.17;;;2.20;;
7215;SDS011;3649;48.798;9.798;2023-04-27T14:09:11;4.97;;;2.27;;
7215;SDS011;3649;48.798;9.798;2023-04-27T14:11:38;4.17;;;1.90;;
7215;SDS011;3649;48.798;9.798;2023-04-27T14:14:21;3.97;;;2.60;;
7215;SDS011;3649;48.798;9.798;2023-04-27T14:16:48;4.70;;;2.20;;
7215;SDS011;3649;48.798;9.798;2023-04-27T14:19:18;2.83;;;2.03;;
7215;SDS011;3649;48.798;9.798;2023-04-27T14:21:46;5.23;;;2.63;;
7215;SDS011;3649;48.798;9.798;2023-04-27T14:24:14;3.13;;;1.93;;
7215;SDS011;3649;48.798;9.798;2023-04-27T14:26:41;2.67;;;2.00;;
7215;SDS011;3649;48.798;9.798;2023-04-27T14:29:09;3.10;;;2.23;;
7215;SDS011;3649;48.798;9.798;2023-04-27T14:31:37;1.87;;;1.77;;
7215;SDS011;3649;48.798;9.798;2023-04-27T14:34:05;8.47;;;2.50;;
7215;SDS011;3649;48.798;9.798;2023-04-27T14:36:33;3.13;;;2.47;;
7215;SDS011;3649;48.798;9.798;2023-04-27T14:39:01;3.17;;;2.13;;
7215;SDS011;3649;48.798;9.798;2023-04-27T14:41:28;3.00;;;2.17;;
7215;SDS011;3649;48.798;9.798;2023-04-27T14:43:55;6.77;;;2.40;;
7215;SDS011;3649;48.798;9.798;2023-04-27T14:46:22;4.93;;;2.60;;
7215;SDS011;3649;48.798;9.798;2023-04-27T14:48:49;2.13;;;1.93;;
7215;SDS011;3649;48.798;9.798;2023-04-27T14:51:16;2.53;;;2.33;;
7215;SDS011;3649;48.798;9.798;2023-04-27T14:53:43;2.43;;;2.00;;
7215;SDS011;3649;48.798;9.798;2023-04-27T14:56:10;4.50;;;2.17;;
7215;SDS011;3649;48.798;9.798;2023-04-27T14:58:37;5.53;;;2.10;;
7215;SDS011;3649;48.798;9.798;2023-04-27T15:01:05;2.43;;;2.10;;
7215;SDS011;3649;48.798;9.798;2023-04-27T15:03:32;2.53;;;2.33;;
7215;SDS011;3649;48.798;9.798;2023-04-27T15:06:00;2.23;;;2.03;;
7215;SDS011;3649;48.798;9.798;2023-04-27T15:08:28;3.97;;;2.30;;
7215;SDS011;3649;48.798;9.798;2023-04-27T15:10:59;3.03;;;1.70;;
7215;SDS011;3649;48.798;9.798;2023-04-27T15:13:26;4.10;;;2.53;;
7215;SDS011;3649;48.798;9.798;2023-04-27T15:15:53;4.13;;;2.27;;
7215;SDS011;3649;48.798;9.798;2023-04-27T15:18:21;2.20;;;2.00;;
7215;SDS011;3649;48.798;9.798;2023-04-27T15:20:58;2.80;;;2.00;;
7215;SDS011;3649;48.798;9.798;2023-04-27T15:23:25;4.40;;;2.10;;
7215;SDS011;3649;48.798;9.798;2023-04-27T15:25:53;6.33;;;2.40;;
7215;SDS011;3649;48.798;9.798;2023-04-27T15:28:24;2.30;;;2.10;;
7215;SDS011;3649;48.798;9.798;2023-04-27T15:30:51;5.87;;;2.57;;
7215;SDS011;3649;48.798;9.798;2023-04-27T15:33:18;2.57;;;2.37;;
7215;SDS011;3649;48.798;9.798;2023-04-27T15:35:45;2.60;;;2.07;;
7215;SDS011;3649;48.798;9.798;2023-04-27T15:38:13;5.20;;;2.13;;
7215;SDS011;3649;48.798;9.798;2023-04-27T15:40:40;2.83;;;2.10;;
7215;SDS011;3649;48.798;9.798;2023-04-27T15:43:08;6.90;;;2.30;;